sensor_id;sensor_type;location;lat;lon;timestamp;pressure;altitude;pressure_sealevel;temperature;humidity
57442;BME280;43284;47.042;15.498;2023-03-03T00:00:38;97263.34;;;3.35;83.12
57442;BME280;43284;47.042;15.498;2023-03-03T00:03:07;97265.91;;;3.35;83.16
57442;BME280;43284;47.042;15.498;2023-03-03T00:05:34;97255.75;;;3.26;83.46
57442;BME280;43284;47.042;15.498;2023-03-03T00:08:00;97255.72;;;3.27;84.18
57442;BME280;43284;47.042;15.498;2023-03-03T00:10:26;97261.75;;;3.28;84.20
57442;BME280;43284;47.042;15.498;2023-03-03T00:12:52;97256.59;;;3.28;84.68
57442;BME280;43284;47.042;15.498;2023-03-03T00:15:23;97254.06;;;3.23;85.23
57442;BME280;43284;47.042;15.498;2023-03-03T00:17:52;97258.38;;;3.24;85.35
57442;BME280;43284;47.042;15.498;2023-03-03T00:23:19;97254.09;;;3.22;86.07
57442;BME280;43284;47.042;15.498;2023-03-03T00:25:49;97254.13;;;3.20;85.98
57442;BME280;43284;47.042;15.498;2023-03-03T00:28:30;97251.53;;;3.20;86.02
57442;BME280;43284;47.042;15.498;2023-03-03T00:30:59;97253.28;;;3.20;85.47
57442;BME280;43284;47.042;15.498;2023-03-03T00:35:56;97244.72;;;3.16;85.70
57442;BME280;43284;47.042;15.498;2023-03-03T00:38:24;97235.25;;;3.17;86.10
57442;BME280;43284;47.042;15.498;2023-03-03T00:40:52;97238.69;;;3.17;85.96
57442;BME280;43284;47.042;15.498;2023-03-03T00:43:23;97236.97;;;3.18;86.70
57442;BME280;43284;47.042;15.498;2023-03-03T00:45:55;97239.56;;;3.16;86.89
57442;BME280;43284;47.042;15.498;2023-03-03T00:51:07;97235.41;;;3.07;87.89
57442;BME280;43284;47.042;15.498;2023-03-03T00:53:35;97231.16;;;3.05;88.71
57442;BME280;43284;47.042;15.498;2023-03-03T00:56:01;97230.31;;;3.03;88.67
57442;BME280;43284;47.042;15.498;2023-03-03T00:58:26;97230.31;;;3.03;89.45
57442;BME280;43284;47.042;15.498;2023-03-03T01:00:53;97225.16;;;3.04;90.02
57442;BME280;43284;47.042;15.498;2023-03-03T01:03:22;97226.06;;;3.02;90.14
57442;BME280;43284;47.042;15.498;2023-03-03T01:05:49;97220.00;;;3.03;90.76
57442;BME280;43284;47.042;15.498;2023-03-03T01:08:15;97215.75;;;3.00;90.48
57442;BME280;43284;47.042;15.498;2023-03-03T01:10:45;97214.84;;;3.01;91.18
57442;BME280;43284;47.042;15.498;2023-03-03T01:13:15;97212.34;;;2.97;91.07
57442;BME280;43284;47.042;15.498;2023-03-03T01:15:44;97218.38;;;2.97;92.14
57442;BME280;43284;47.042;15.498;2023-03-03T01:18:11;97211.44;;;2.99;92.19
57442;BME280;43284;47.042;15.498;2023-03-03T01:20:38;97202.00;;;2.98;91.68
57442;BME280;43284;47.042;15.498;2023-03-03T01:23:04;97208.88;;;2.99;92.07
57442;BME280;43284;47.042;15.498;2023-03-03T01:25:30;97202.91;;;2.96;92.25
57442;BME280;43284;47.042;15.498;2023-03-03T01:27:56;97201.19;;;2.96;93.04
57442;BME280;43284;47.042;15.498;2023-03-03T01:30:22;97195.19;;;2.94;93.25
57442;BME280;43284;47.042;15.498;2023-03-03T01:32:48;97196.97;;;2.91;93.36
57442;BME280;43284;47.042;15.498;2023-03-03T01:35:14;97193.53;;;2.92;94.06
57442;BME280;43284;47.042;15.498;2023-03-03T01:37:39;97190.13;;;2.89;94.36
57442;BME280;43284;47.042;15.498;2023-03-03T01:40:07;97191.03;;;2.87;94.68
57442;BME280;43284;47.042;15.498;2023-03-03T01:42:36;97185.03;;;2.85;94.83
57442;BME280;43284;47.042;15.498;2023-03-03T01:45:39;97195.38;;;2.85;95.49
57442;BME280;43284;47.042;15.498;2023-03-03T01:48:16;97191.88;;;2.86;95.19
57442;BME280;43284;47.042;15.498;2023-03-03T01:53:16;97187.59;;;2.86;95.78
57442;BME280;43284;47.042;15.498;2023-03-03T01:55:44;97190.22;;;2.83;95.73
57442;BME280;43284;47.042;15.498;2023-03-03T01:58:21;97187.66;;;2.82;96.27
57442;BME280;43284;47.042;15.498;2023-03-03T02:00:54;97179.97;;;2.80;96.29
57442;BME280;43284;47.042;15.498;2023-03-03T02:03:25;97181.72;;;2.78;97.03
57442;BME280;43284;47.042;15.498;2023-03-03T02:05:55;97170.53;;;2.78;97.31
57442;BME280;43284;47.042;15.498;2023-03-03T02:08:25;97172.25;;;2.77;97.46
57442;BME280;43284;47.042;15.498;2023-03-03T02:10:56;97181.66;;;2.80;97.60
57442;BME280;43284;47.042;15.498;2023-03-03T02:13:22;97173.06;;;2.81;97.95
57442;BME280;43284;47.042;15.498;2023-03-03T02:15:48;97175.63;;;2.82;97.79
57442;BME280;43284;47.042;15.498;2023-03-03T02:18:15;97176.47;;;2.81;97.99
57442;BME280;43284;47.042;15.498;2023-03-03T02:20:45;97173.88;;;2.83;98.07
57442;BME280;43284;47.042;15.498;2023-03-03T02:23:26;97171.31;;;2.83;98.22
57442;BME280;43284;47.042;15.498;2023-03-03T02:28:28;97173.03;;;2.82;98.27
57442;BME280;43284;47.042;15.498;2023-03-03T02:30:56;97175.63;;;2.81;98.46
57442;BME280;43284;47.042;15.498;2023-03-03T02:33:22;97166.16;;;2.81;98.00
57442;BME280;43284;47.042;15.498;2023-03-03T02:35:49;97167.00;;;2.82;98.23
57442;BME280;43284;47.042;15.498;2023-03-03T02:46:13;97156.09;;;2.67;97.42
57442;BME280;43284;47.042;15.498;2023-03-03T02:48:38;97156.09;;;2.66;97.40
57442;BME280;43284;47.042;15.498;2023-03-03T02:51:04;97152.69;;;2.65;97.98
57442;BME280;43284;47.042;15.498;2023-03-03T02:53:30;97147.53;;;2.64;98.08
57442;BME280;43284;47.042;15.498;2023-03-03T02:55:55;97146.72;;;2.62;98.00
57442;BME280;43284;47.042;15.498;2023-03-03T02:58:21;97153.69;;;2.55;97.44
57442;BME280;43284;47.042;15.498;2023-03-03T03:00:47;97154.59;;;2.54;97.60
57442;BME280;43284;47.042;15.498;2023-03-03T03:03:13;97151.19;;;2.51;97.91
57442;BME280;43284;47.042;15.498;2023-03-03T03:05:39;97152.09;;;2.50;97.81
57442;BME280;43284;47.042;15.498;2023-03-03T03:08:05;97152.13;;;2.48;98.14
57442;BME280;43284;47.042;15.498;2023-03-03T03:10:30;97149.56;;;2.46;98.14
57442;BME280;43284;47.042;15.498;2023-03-03T03:12:56;97147.91;;;2.42;97.39
57442;BME280;43284;47.042;15.498;2023-03-03T03:15:22;97147.06;;;2.40;97.47
57442;BME280;43284;47.042;15.498;2023-03-03T03:17:47;97141.97;;;2.37;97.57
57442;BME280;43284;47.042;15.498;2023-03-03T03:20:14;97141.97;;;2.36;97.32
57442;BME280;43284;47.042;15.498;2023-03-03T03:22:40;97141.16;;;2.34;97.35
57442;BME280;43284;47.042;15.498;2023-03-03T03:25:06;97139.47;;;2.33;97.49
57442;BME280;43284;47.042;15.498;2023-03-03T03:27:32;97134.31;;;2.31;97.78
57442;BME280;43284;47.042;15.498;2023-03-03T03:29:58;97133.53;;;2.28;97.65
57442;BME280;43284;47.042;15.498;2023-03-03T03:32:23;97136.13;;;2.26;97.95
57442;BME280;43284;47.042;15.498;2023-03-03T03:34:49;97136.16;;;2.24;97.90
57442;BME280;43284;47.042;15.498;2023-03-03T03:37:15;97126.72;;;2.23;98.02
57442;BME280;43284;47.042;15.498;2023-03-03T03:39:41;97128.47;;;2.21;97.71
57442;BME280;43284;47.042;15.498;2023-03-03T03:42:07;97135.38;;;2.19;98.07
57442;BME280;43284;47.042;15.498;2023-03-03T03:44:32;97133.66;;;2.18;98.08
57442;BME280;43284;47.042;15.498;2023-03-03T03:46:58;97129.41;;;2.16;98.31
57442;BME280;43284;47.042;15.498;2023-03-03T03:49:23;97126.00;;;2.14;97.96
57442;BME280;43284;47.042;15.498;2023-03-03T03:51:49;97126.06;;;2.12;98.11
57442;BME280;43284;47.042;15.498;2023-03-03T03:54:15;97134.66;;;2.10;98.00
57442;BME280;43284;47.042;15.498;2023-03-03T03:56:40;97132.19;;;2.03;97.54
57442;BME280;43284;47.042;15.498;2023-03-03T03:59:06;97127.09;;;1.99;97.36
57442;BME280;43284;47.042;15.498;2023-03-03T04:01:32;97132.28;;;1.97;98.00
57442;BME280;43284;47.042;15.498;2023-03-03T04:03:58;97127.16;;;1.94;97.85
57442;BME280;43284;47.042;15.498;2023-03-03T04:06:24;97118.66;;;1.88;97.67
57442;BME280;43284;47.042;15.498;2023-03-03T04:08:49;97119.53;;;1.88;97.84
57442;BME280;43284;47.042;15.498;2023-03-03T04:11:15;97120.41;;;1.87;98.31
57442;BME280;43284;47.042;15.498;2023-03-03T04:13:41;97121.22;;;1.89;98.24
57442;BME280;43284;47.042;15.498;2023-03-03T04:16:07;97122.97;;;1.89;98.32
57442;BME280;43284;47.042;15.498;2023-03-03T04:18:33;97123.94;;;1.80;97.47
57442;BME280;43284;47.042;15.498;2023-03-03T04:20:58;97124.03;;;1.75;97.54
57442;BME280;43284;47.042;15.498;2023-03-03T04:23:24;97124.94;;;1.70;97.06
57442;BME280;43284;47.042;15.498;2023-03-03T04:25:50;97122.38;;;1.68;97.89
57442;BME280;43284;47.042;15.498;2023-03-03T04:28:16;97132.72;;;1.67;97.43
57442;BME280;43284;47.042;15.498;2023-03-03T04:30:42;97129.28;;;1.66;97.60
57442;BME280;43284;47.042;15.498;2023-03-03T04:33:07;97127.59;;;1.65;97.94
57442;BME280;43284;47.042;15.498;2023-03-03T04:35:33;97125.00;;;1.65;97.59
57442;BME280;43284;47.042;15.498;2023-03-03T04:37:59;97125.91;;;1.64;97.82
57442;BME280;43284;47.042;15.498;2023-03-03T04:40:25;97123.34;;;1.59;98.07
57442;BME280;43284;47.042;15.498;2023-03-03T04:42:52;97119.16;;;1.55;97.59
57442;BME280;43284;47.042;15.498;2023-03-03T04:45:17;97122.56;;;1.56;97.85
57442;BME280;43284;47.042;15.498;2023-03-03T04:47:43;97124.31;;;1.55;98.27
57442;BME280;43284;47.042;15.498;2023-03-03T04:50:10;97126.03;;;1.53;98.08
57442;BME280;43284;47.042;15.498;2023-03-03T04:52:36;97132.06;;;1.52;98.03
57442;BME280;43284;47.042;15.498;2023-03-03T04:55:02;97128.63;;;1.50;97.94
57442;BME280;43284;47.042;15.498;2023-03-03T04:57:28;97126.13;;;1.47;98.07
57442;BME280;43284;47.042;15.498;2023-03-03T04:59:55;97129.59;;;1.43;98.08
57442;BME280;43284;47.042;15.498;2023-03-03T05:02:21;97135.59;;;1.45;98.69
57442;BME280;43284;47.042;15.498;2023-03-03T05:04:46;97130.38;;;1.48;99.24
57442;BME280;43284;47.042;15.498;2023-03-03T05:07:12;97136.38;;;1.50;99.31
57442;BME280;43284;47.042;15.498;2023-03-03T05:09:38;97141.50;;;1.53;99.62
57442;BME280;43284;47.042;15.498;2023-03-03T05:12:03;97139.75;;;1.55;99.87
57442;BME280;43284;47.042;15.498;2023-03-03T05:14:29;97142.28;;;1.57;99.78
57442;BME280;43284;47.042;15.498;2023-03-03T05:16:55;97144.84;;;1.58;99.83
57442;BME280;43284;47.042;15.498;2023-03-03T05:19:21;97137.22;;;1.52;99.38
57442;BME280;43284;47.042;15.498;2023-03-03T05:21:47;97133.78;;;1.53;99.75
57442;BME280;43284;47.042;15.498;2023-03-03T05:24:13;97139.72;;;1.57;99.82
57442;BME280;43284;47.042;15.498;2023-03-03T05:26:39;97141.41;;;1.59;100.00
57442;BME280;43284;47.042;15.498;2023-03-03T05:29:06;97143.94;;;1.62;100.00
57442;BME280;43284;47.042;15.498;2023-03-03T05:31:32;97148.19;;;1.67;100.00
57442;BME280;43284;47.042;15.498;2023-03-03T05:33:57;97145.63;;;1.63;100.00
57442;BME280;43284;47.042;15.498;2023-03-03T05:36:23;97148.28;;;1.59;99.91
57442;BME280;43284;47.042;15.498;2023-03-03T05:38:49;97153.41;;;1.62;100.00
57442;BME280;43284;47.042;15.498;2023-03-03T05:41:15;97149.03;;;1.65;100.00
57442;BME280;43284;47.042;15.498;2023-03-03T05:43:40;97161.03;;;1.70;100.00
57442;BME280;43284;47.042;15.498;2023-03-03T05:46:06;97164.41;;;1.73;100.00
57442;BME280;43284;47.042;15.498;2023-03-03T05:48:32;97159.22;;;1.75;100.00
57442;BME280;43284;47.042;15.498;2023-03-03T05:50:58;97154.06;;;1.76;100.00
57442;BME280;43284;47.042;15.498;2023-03-03T05:53:25;97162.63;;;1.78;100.00
57442;BME280;43284;47.042;15.498;2023-03-03T05:55:51;97166.88;;;1.81;100.00
57442;BME280;43284;47.042;15.498;2023-03-03T05:58:17;97165.19;;;1.80;100.00
57442;BME280;43284;47.042;15.498;2023-03-03T06:00:43;97160.88;;;1.79;100.00
57442;BME280;43284;47.042;15.498;2023-03-03T06:03:08;97166.94;;;1.78;100.00
57442;BME280;43284;47.042;15.498;2023-03-03T06:05:34;97166.03;;;1.80;100.00
57442;BME280;43284;47.042;15.498;2023-03-03T06:08:00;97166.03;;;1.82;100.00
57442;BME280;43284;47.042;15.498;2023-03-03T06:10:25;97160.81;;;1.83;100.00
57442;BME280;43284;47.042;15.498;2023-03-03T06:12:51;97170.25;;;1.86;100.00
57442;BME280;43284;47.042;15.498;2023-03-03T06:15:17;97174.53;;;1.87;100.00
57442;BME280;43284;47.042;15.498;2023-03-03T06:17:43;97176.19;;;1.91;100.00
57442;BME280;43284;47.042;15.498;2023-03-03T06:20:09;97171.84;;;1.95;100.00
57442;BME280;43284;47.042;15.498;2023-03-03T06:22:35;97176.06;;;1.99;100.00
57442;BME280;43284;47.042;15.498;2023-03-03T06:25:00;97179.47;;;2.02;100.00
57442;BME280;43284;47.042;15.498;2023-03-03T06:27:26;97184.56;;;2.05;100.00
57442;BME280;43284;47.042;15.498;2023-03-03T06:29:52;97185.38;;;2.09;100.00
57442;BME280;43284;47.042;15.498;2023-03-03T06:32:17;97193.03;;;2.14;100.00
57442;BME280;43284;47.042;15.498;2023-03-03T06:34:43;97199.88;;;2.18;100.00
57442;BME280;43284;47.042;15.498;2023-03-03T06:37:09;97195.53;;;2.21;100.00
57442;BME280;43284;47.042;15.498;2023-03-03T06:39:35;97203.19;;;2.26;100.00
57442;BME280;43284;47.042;15.498;2023-03-03T06:42:01;97202.28;;;2.30;100.00
57442;BME280;43284;47.042;15.498;2023-03-03T06:44:26;97202.19;;;2.35;100.00
57442;BME280;43284;47.042;15.498;2023-03-03T06:46:52;97210.72;;;2.38;100.00
57442;BME280;43284;47.042;15.498;2023-03-03T06:49:18;97196.06;;;2.40;100.00
57442;BME280;43284;47.042;15.498;2023-03-03T06:51:43;97206.34;;;2.45;100.00
57442;BME280;43284;47.042;15.498;2023-03-03T06:54:15;97206.28;;;2.50;100.00
57442;BME280;43284;47.042;15.498;2023-03-03T06:56:42;97213.06;;;2.55;100.00
57442;BME280;43284;47.042;15.498;2023-03-03T06:59:19;97213.03;;;2.58;100.00
57442;BME280;43284;47.042;15.498;2023-03-03T07:01:47;97215.53;;;2.63;100.00
57442;BME280;43284;47.042;15.498;2023-03-03T07:04:45;97220.63;;;2.64;100.00
57442;BME280;43284;47.042;15.498;2023-03-03T07:07:23;97221.44;;;2.70;100.00
57442;BME280;43284;47.042;15.498;2023-03-03T07:09:51;97223.09;;;2.72;100.00
57442;BME280;43284;47.042;15.498;2023-03-03T07:12:20;97230.78;;;2.75;100.00
57442;BME280;43284;47.042;15.498;2023-03-03T07:14:49;97233.34;;;2.78;100.00
57442;BME280;43284;47.042;15.498;2023-03-03T07:17:22;97241.03;;;2.80;100.00
57442;BME280;43284;47.042;15.498;2023-03-03T07:19:48;97245.28;;;2.84;100.00
57442;BME280;43284;47.042;15.498;2023-03-03T07:22:20;97252.13;;;2.86;100.00
57442;BME280;43284;47.042;15.498;2023-03-03T07:24:48;97246.03;;;2.91;100.00
57442;BME280;43284;47.042;15.498;2023-03-03T07:27:28;97250.25;;;2.96;100.00
57442;BME280;43284;47.042;15.498;2023-03-03T07:30:20;97252.75;;;2.99;100.00
57442;BME280;43284;47.042;15.498;2023-03-03T07:32:48;97253.56;;;3.03;100.00
57442;BME280;43284;47.042;15.498;2023-03-03T07:35:34;97257.78;;;3.08;100.00
57442;BME280;43284;47.042;15.498;2023-03-03T07:38:02;97249.97;;;3.12;100.00
57442;BME280;43284;47.042;15.498;2023-03-03T07:40:38;97246.41;;;3.19;100.00
57442;BME280;43284;47.042;15.498;2023-03-03T07:48:37;97241.00;;;3.33;100.00
57442;BME280;43284;47.042;15.498;2023-03-03T07:51:27;97236.56;;;3.39;100.00
57442;BME280;43284;47.042;15.498;2023-03-03T07:57:28;97234.59;;;3.52;100.00
57442;BME280;43284;47.042;15.498;2023-03-03T07:59:51;97233.63;;;3.58;100.00
57442;BME280;43284;47.042;15.498;2023-03-03T08:02:32;97238.69;;;3.62;100.00
57442;BME280;43284;47.042;15.498;2023-03-03T08:04:59;97242.06;;;3.67;100.00
57442;BME280;43284;47.042;15.498;2023-03-03T08:07:25;97247.16;;;3.70;100.00
57442;BME280;43284;47.042;15.498;2023-03-03T08:12:23;97251.28;;;3.79;100.00
57442;BME280;43284;47.042;15.498;2023-03-03T08:14:50;97248.59;;;3.84;99.94
57442;BME280;43284;47.042;15.498;2023-03-03T08:17:20;97244.16;;;3.90;99.27
57442;BME280;43284;47.042;15.498;2023-03-03T08:19:47;97247.47;;;3.97;99.30
57442;BME280;43284;47.042;15.498;2023-03-03T08:22:19;97243.09;;;4.01;98.92
57442;BME280;43284;47.042;15.498;2023-03-03T08:24:49;97249.00;;;4.07;99.21
57442;BME280;43284;47.042;15.498;2023-03-03T08:27:15;97247.97;;;4.13;98.98
57442;BME280;43284;47.042;15.498;2023-03-03T08:29:40;97246.91;;;4.23;99.20
57442;BME280;43284;47.042;15.498;2023-03-03T08:32:06;97251.06;;;4.30;98.47
57442;BME280;43284;47.042;15.498;2023-03-03T08:34:31;97255.34;;;4.33;97.86
57442;BME280;43284;47.042;15.498;2023-03-03T08:36:57;97253.41;;;4.41;97.53
57442;BME280;43284;47.042;15.498;2023-03-03T08:39:23;97260.06;;;4.53;98.03
57442;BME280;43284;47.042;15.498;2023-03-03T08:41:49;97256.44;;;4.60;97.16
57442;BME280;43284;47.042;15.498;2023-03-03T08:44:14;97264.94;;;4.65;95.62
57442;BME280;43284;47.042;15.498;2023-03-03T08:46:40;97254.47;;;4.70;94.85
57442;BME280;43284;47.042;15.498;2023-03-03T08:49:05;97260.28;;;4.80;95.19
57442;BME280;43284;47.042;15.498;2023-03-03T08:51:31;97253.22;;;4.86;94.10
57442;BME280;43284;47.042;15.498;2023-03-03T08:53:59;97263.31;;;4.97;93.78
57442;BME280;43284;47.042;15.498;2023-03-03T08:56:24;97261.44;;;5.04;92.66
57442;BME280;43284;47.042;15.498;2023-03-03T08:58:50;97263.78;;;5.13;92.88
57442;BME280;43284;47.042;15.498;2023-03-03T09:01:15;97264.41;;;5.23;92.52
57442;BME280;43284;47.042;15.498;2023-03-03T09:03:42;97254.81;;;5.26;91.24
57442;BME280;43284;47.042;15.498;2023-03-03T09:06:10;97257.16;;;5.35;90.88
57442;BME280;43284;47.042;15.498;2023-03-03T09:08:36;97258.88;;;5.36;89.87
57442;BME280;43284;47.042;15.498;2023-03-03T09:11:02;97257.91;;;5.41;89.17
57442;BME280;43284;47.042;15.498;2023-03-03T09:13:34;97252.47;;;5.50;89.43
57442;BME280;43284;47.042;15.498;2023-03-03T09:16:00;97246.03;;;5.63;88.51
57442;BME280;43284;47.042;15.498;2023-03-03T09:18:37;97252.63;;;5.75;88.17
57442;BME280;43284;47.042;15.498;2023-03-03T09:21:28;97255.72;;;5.88;87.58
57442;BME280;43284;47.042;15.498;2023-03-03T09:24:00;97252.66;;;6.06;86.69
57442;BME280;43284;47.042;15.498;2023-03-03T09:26:30;97258.56;;;6.11;85.70
57442;BME280;43284;47.042;15.498;2023-03-03T09:29:37;97246.25;;;6.18;84.64
57442;BME280;43284;47.042;15.498;2023-03-03T09:32:23;97253.81;;;6.26;82.71
57442;BME280;43284;47.042;15.498;2023-03-03T09:34:51;97256.16;;;6.33;84.73
57442;BME280;43284;47.042;15.498;2023-03-03T09:37:20;97252.31;;;6.73;83.93
57442;BME280;43284;47.042;15.498;2023-03-03T09:39:49;97252.06;;;6.83;80.66
57442;BME280;43284;47.042;15.498;2023-03-03T09:42:47;97248.97;;;6.98;82.18
57442;BME280;43284;47.042;15.498;2023-03-03T09:48:24;97248.78;;;7.29;80.86
57442;BME280;43284;47.042;15.498;2023-03-03T09:54:09;97256.19;;;7.65;78.04
57442;BME280;43284;47.042;15.498;2023-03-03T09:56:50;97247.06;;;7.78;76.59
57442;BME280;43284;47.042;15.498;2023-03-03T09:59:37;97243.56;;;7.79;75.15
57442;BME280;43284;47.042;15.498;2023-03-03T10:02:28;97246.25;;;8.00;74.38
57442;BME280;43284;47.042;15.498;2023-03-03T10:10:46;97239.03;;;8.08;71.66
57442;BME280;43284;47.042;15.498;2023-03-03T10:18:38;97247.19;;;8.68;72.93
57442;BME280;43284;47.042;15.498;2023-03-03T10:21:15;97243.19;;;8.81;71.53
57442;BME280;43284;47.042;15.498;2023-03-03T10:24:09;97242.75;;;8.92;71.00
57442;BME280;43284;47.042;15.498;2023-03-03T10:32:18;97232.88;;;9.21;67.34
57442;BME280;43284;47.042;15.498;2023-03-03T10:37:23;97236.38;;;8.99;63.45
57442;BME280;43284;47.042;15.498;2023-03-03T11:08:07;97211.91;;;9.63;62.44
57442;BME280;43284;47.042;15.498;2023-03-03T11:10:47;97213.75;;;9.61;63.04
57442;BME280;43284;47.042;15.498;2023-03-03T11:18:48;97201.16;;;10.09;59.82
57442;BME280;43284;47.042;15.498;2023-03-03T11:21:40;97205.34;;;10.13;62.94
57442;BME280;43284;47.042;15.498;2023-03-03T11:32:40;97185.97;;;10.55;60.39
57442;BME280;43284;47.042;15.498;2023-03-03T11:40:20;97186.97;;;10.34;59.82
57442;BME280;43284;47.042;15.498;2023-03-03T11:45:42;97177.25;;;10.37;61.05
57442;BME280;43284;47.042;15.498;2023-03-03T11:48:30;97168.28;;;10.60;60.66
57442;BME280;43284;47.042;15.498;2023-03-03T11:51:04;97173.50;;;10.60;60.32
57442;BME280;43284;47.042;15.498;2023-03-03T11:56:40;97164.41;;;11.04;58.46
57442;BME280;43284;47.042;15.498;2023-03-03T12:01:55;97157.66;;;10.46;60.17
57442;BME280;43284;47.042;15.498;2023-03-03T12:04:28;97157.72;;;10.44;59.61
57442;BME280;43284;47.042;15.498;2023-03-03T12:09:38;97150.09;;;10.59;60.50
57442;BME280;43284;47.042;15.498;2023-03-03T12:12:13;97149.47;;;10.71;60.36
57442;BME280;43284;47.042;15.498;2023-03-03T12:15:18;97148.56;;;10.72;60.50
57442;BME280;43284;47.042;15.498;2023-03-03T12:23:29;97149.97;;;10.43;59.00
57442;BME280;43284;47.042;15.498;2023-03-03T12:28:54;97143.63;;;10.29;59.15
57442;BME280;43284;47.042;15.498;2023-03-03T12:34:44;97145.19;;;10.34;59.31
57442;BME280;43284;47.042;15.498;2023-03-03T12:39:55;97152.88;;;9.99;59.81
57442;BME280;43284;47.042;15.498;2023-03-03T12:47:50;97138.34;;;9.93;61.76
57442;BME280;43284;47.042;15.498;2023-03-03T12:50:29;97136.38;;;10.17;59.78
57442;BME280;43284;47.042;15.498;2023-03-03T12:53:23;97132.53;;;10.05;59.15
57442;BME280;43284;47.042;15.498;2023-03-03T12:56:06;97127.69;;;10.53;59.96
57442;BME280;43284;47.042;15.498;2023-03-03T12:59:04;97132.03;;;10.89;58.49
57442;BME280;43284;47.042;15.498;2023-03-03T13:01:39;97134.75;;;11.21;57.28
57442;BME280;43284;47.042;15.498;2023-03-03T13:07:03;97129.38;;;11.24;56.86
57442;BME280;43284;47.042;15.498;2023-03-03T13:15:41;97123.84;;;10.78;57.35
57442;BME280;43284;47.042;15.498;2023-03-03T13:18:42;97119.94;;;10.69;55.67
57442;BME280;43284;47.042;15.498;2023-03-03T13:21:35;97117.66;;;10.63;56.93
57442;BME280;43284;47.042;15.498;2023-03-03T13:24:15;97118.91;;;10.37;56.58
57442;BME280;43284;47.042;15.498;2023-03-03T13:26:49;97129.72;;;10.29;56.01
57442;BME280;43284;47.042;15.498;2023-03-03T13:29:32;97125.53;;;10.44;57.33
57442;BME280;43284;47.042;15.498;2023-03-03T13:32:07;97127.94;;;10.29;56.76
57442;BME280;43284;47.042;15.498;2023-03-03T13:34:48;97126.47;;;10.24;56.43
57442;BME280;43284;47.042;15.498;2023-03-03T13:37:23;97112.69;;;10.39;56.31
57442;BME280;43284;47.042;15.498;2023-03-03T13:44:48;97115.25;;;10.41;58.46
57442;BME280;43284;47.042;15.498;2023-03-03T13:47:37;97112.53;;;10.42;56.98
57442;BME280;43284;47.042;15.498;2023-03-03T13:52:56;97119.09;;;10.68;56.99
57442;BME280;43284;47.042;15.498;2023-03-03T13:55:34;97119.50;;;10.78;56.79
57442;BME280;43284;47.042;15.498;2023-03-03T13:58:25;97111.41;;;10.48;55.56
57442;BME280;43284;47.042;15.498;2023-03-03T14:01:11;97107.50;;;10.57;56.90
57442;BME280;43284;47.042;15.498;2023-03-03T14:03:47;97104.94;;;10.55;57.13
57442;BME280;43284;47.042;15.498;2023-03-03T14:06:22;97097.34;;;10.68;56.80
57442;BME280;43284;47.042;15.498;2023-03-03T14:11:46;97095.78;;;10.81;56.45
57442;BME280;43284;47.042;15.498;2023-03-03T14:14:46;97096.78;;;10.96;56.77
57442;BME280;43284;47.042;15.498;2023-03-03T14:17:46;97096.88;;;10.95;55.33
57442;BME280;43284;47.042;15.498;2023-03-03T14:20:14;97095.44;;;10.89;56.50
57442;BME280;43284;47.042;15.498;2023-03-03T14:26:04;97088.00;;;10.97;55.77
57442;BME280;43284;47.042;15.498;2023-03-03T14:28:43;97088.91;;;11.13;57.04
57442;BME280;43284;47.042;15.498;2023-03-03T14:31:37;97090.91;;;11.08;55.83
57442;BME280;43284;47.042;15.498;2023-03-03T14:36:48;97090.75;;;10.78;56.65
57442;BME280;43284;47.042;15.498;2023-03-03T14:39:32;97090.94;;;10.91;57.35
57442;BME280;43284;47.042;15.498;2023-03-03T14:42:01;97086.94;;;10.84;56.50
57442;BME280;43284;47.042;15.498;2023-03-03T14:44:47;97087.59;;;10.71;56.27
57442;BME280;43284;47.042;15.498;2023-03-03T14:47:23;97090.97;;;10.74;56.25
57442;BME280;43284;47.042;15.498;2023-03-03T14:49:50;97090.63;;;10.80;57.45
57442;BME280;43284;47.042;15.498;2023-03-03T14:54:44;97094.19;;;10.61;57.55
57442;BME280;43284;47.042;15.498;2023-03-03T14:59:59;97089.25;;;10.72;57.42
57442;BME280;43284;47.042;15.498;2023-03-03T15:05:23;97088.72;;;10.66;57.43
57442;BME280;43284;47.042;15.498;2023-03-03T15:10:50;97082.72;;;10.46;58.45
57442;BME280;43284;47.042;15.498;2023-03-03T15:15:51;97087.78;;;10.32;58.71
57442;BME280;43284;47.042;15.498;2023-03-03T15:18:17;97085.09;;;10.34;59.09
57442;BME280;43284;47.042;15.498;2023-03-03T15:21:07;97085.03;;;10.16;59.58
57442;BME280;43284;47.042;15.498;2023-03-03T15:23:58;97086.53;;;10.03;60.52
57442;BME280;43284;47.042;15.498;2023-03-03T15:27:03;97085.41;;;10.08;58.88
57442;BME280;43284;47.042;15.498;2023-03-03T15:32:44;97079.53;;;10.03;60.00
57442;BME280;43284;47.042;15.498;2023-03-03T15:35:30;97084.75;;;10.03;60.07
57442;BME280;43284;47.042;15.498;2023-03-03T15:38:06;97080.41;;;10.04;59.95
57442;BME280;43284;47.042;15.498;2023-03-03T15:40:45;97082.09;;;10.05;60.47
57442;BME280;43284;47.042;15.498;2023-03-03T15:54:52;97096.94;;;9.85;61.18
57442;BME280;43284;47.042;15.498;2023-03-03T16:02:41;97101.78;;;9.55;61.79
57442;BME280;43284;47.042;15.498;2023-03-03T16:13:29;97108.13;;;9.31;64.70
57442;BME280;43284;47.042;15.498;2023-03-03T16:16:11;97114.13;;;9.33;64.47
57442;BME280;43284;47.042;15.498;2023-03-03T16:19:16;97111.09;;;9.23;64.88
57442;BME280;43284;47.042;15.498;2023-03-03T16:21:50;97116.41;;;9.20;65.39
57442;BME280;43284;47.042;15.498;2023-03-03T16:30:27;97125.81;;;8.83;65.74
57442;BME280;43284;47.042;15.498;2023-03-03T16:33:14;97132.94;;;8.79;66.69
57442;BME280;43284;47.042;15.498;2023-03-03T16:35:50;97131.47;;;8.72;67.01
57442;BME280;43284;47.042;15.498;2023-03-03T16:38:36;97126.59;;;8.64;67.74
57442;BME280;43284;47.042;15.498;2023-03-03T16:41:06;97132.06;;;8.58;67.01
57442;BME280;43284;47.042;15.498;2023-03-03T16:44:11;97134.97;;;8.51;67.14
57442;BME280;43284;47.042;15.498;2023-03-03T16:46:42;97137.13;;;8.39;67.37